Time;durP1;ratioP1;P1;durP2;ratioP2;P2;SDS_P1;SDS_P2;PMS_P1;PMS_P2;Temp;Humidity;BMP_temperature;BMP_pressure;BME280_temperature;BME280_humidity;BME280_pressure;Samples;Min_cycle;Max_cycle;Signal;HPM_P1;HPM_P2
2023/09/26 00:13:54;;;;;;;8.45;4.82;;;;;;;24.40;56.80;101050.94;41333161;28;20035;-74
2023/09/26 00:33:55;;;;;;;7.28;5.20;;;;;;;24.38;56.80;101047.59;41347948;28;20070;-75
2023/09/26 00:53:55;;;;;;;8.20;4.95;;;;;;;24.34;56.79;101035.56;41359931;28;20088;-73
2023/09/26 01:13:56;;;;;;;8.52;5.35;;;;;;;24.30;56.56;101049.06;41340791;28;20046;-73
2023/09/26 01:33:56;;;;;;;7.45;5.25;;;;;;;24.07;56.39;101007.69;41387583;28;20045;-73
2023/09/26 01:53:57;;;;;;;6.32;4.80;;;;;;;24.20;56.60;101037.50;41387244;28;20746;-75
2023/09/26 02:13:57;;;;;;;9.82;5.43;;;;;;;24.25;56.36;101048.56;41386385;28;20045;-72
2023/09/26 02:33:59;;;;;;;7.43;5.22;;;;;;;23.90;56.37;100999.28;41365113;28;20042;-74
2023/09/26 02:54:00;;;;;;;8.13;5.50;;;;;;;24.19;56.04;101048.22;41373406;28;20053;-73
2023/09/26 03:14:00;;;;;;;8.30;5.60;;;;;;;24.06;56.15;101043.91;41378495;28;20077;-73
2023/09/26 03:34:02;;;;;;;9.73;6.00;;;;;;;24.07;55.96;101050.03;41365531;28;20129;-72
2023/09/26 03:54:03;;;;;;;8.57;5.65;;;;;;;24.00;55.92;101046.19;41365323;28;20049;-73
2023/09/26 04:14:14;;;;;;;7.22;5.55;;;;;;;24.19;55.39;101053.50;41391837;28;20070;-71
2023/09/26 04:34:14;;;;;;;12.57;5.00;;;;;;;23.92;54.14;101074.09;41408595;28;20065;-71
2023/09/26 04:54:16;;;;;;;13.43;4.65;;;;;;;23.45;54.32;101063.56;41404535;28;20046;-79
2023/09/26 05:14:16;;;;;;;19.80;5.40;;;;;;;22.96;55.26;101054.00;41388503;28;20046;-75
2023/09/26 05:34:17;;;;;;;17.65;5.10;;;;;;;22.83;55.81;101096.34;41379308;28;20049;-72
2023/09/26 05:54:17;;;;;;;12.23;5.07;;;;;;;23.28;54.92;101109.78;41340240;28;20048;-73
2023/09/26 06:14:17;;;;;;;10.98;4.95;;;;;;;23.22;55.31;101107.59;41324485;28;20120;-73
2023/09/26 06:34:18;;;;;;;12.18;5.25;;;;;;;23.11;55.37;101091.69;41369453;28;20702;-73
2023/09/26 06:54:18;;;;;;;8.60;4.78;;;;;;;23.43;55.34;101102.47;41339429;28;20047;-73
2023/09/26 07:14:19;;;;;;;11.43;6.38;;;;;;;23.77;54.92;101107.00;41363708;28;20065;-73
2023/09/26 07:34:20;;;;;;;10.75;6.40;;;;;;;23.78;55.07;101113.97;41389354;28;20766;-74
2023/09/26 07:54:20;;;;;;;33.20;9.15;;;;;;;24.00;54.62;101126.41;41332037;28;20129;-73
2023/09/26 08:14:23;;;;;;;63.90;11.10;;;;;;;24.05;54.80;101126.88;41311905;28;20100;-73
2023/09/26 08:34:25;;;;;;;28.80;9.80;;;;;;;24.00;53.74;101107.03;41347848;28;20056;-74
2023/09/26 08:54:25;;;;;;;655.63;47.67;;;;;;;24.23;54.73;101106.06;41352905;28;20060;-74
2023/09/26 09:14:33;;;;;;;297.42;24.75;;;;;;;24.10;53.79;101068.31;41385719;28;20705;-75
2023/09/26 09:34:35;;;;;;;108.90;17.58;;;;;;;24.16;53.37;101056.38;41373603;28;20490;-76
2023/09/26 09:54:39;;;;;;;35.85;10.70;;;;;;;24.57;51.35;101070.75;41369374;28;20050;-74
2023/09/26 10:14:39;;;;;;;205.43;51.25;;;;;;;25.25;50.31;101033.38;41356431;28;21027;-76
2023/09/26 10:34:44;;;;;;;351.75;91.18;;;;;;;24.88;48.10;101023.25;41377108;28;20041;-76
2023/09/26 10:54:45;;;;;;;90.88;28.90;;;;;;;24.55;48.43;100935.03;41400315;28;20053;-76
2023/09/26 11:14:46;;;;;;;40.22;15.70;;;;;;;24.48;48.31;100886.19;41401816;28;20058;-73
2023/09/26 11:34:47;;;;;;;193.23;50.05;;;;;;;24.44;47.06;100851.22;41405020;28;20462;-73
2023/09/26 11:54:48;;;;;;;52.30;17.27;;;;;;;25.24;46.82;100950.41;41426590;28;20042;-73
2023/09/26 12:14:48;;;;;;;61.00;18.42;;;;;;;25.14;45.69;100898.31;41380354;28;20042;-72
2023/09/26 12:34:49;;;;;;;25.40;9.70;;;;;;;25.43;45.06;100901.13;41364934;28;20049;-73
2023/09/26 12:54:49;;;;;;;14.75;7.00;;;;;;;25.45;45.16;100880.63;41402124;28;20830;-75
2023/09/26 13:14:49;;;;;;;12.55;4.45;;;;;;;25.69;38.36;100901.44;41408059;28;20113;-69
2023/09/26 13:34:51;;;;;;;9.90;5.22;;;;;;;25.73;41.66;100875.50;41396873;28;20057;-74
2023/09/26 13:54:52;;;;;;;9.38;3.83;;;;;;;25.65;37.78;100851.50;41404719;28;20794;-68
2023/09/26 14:14:52;;;;;;;6.28;3.15;;;;;;;25.55;35.32;100847.00;41390872;28;20046;-70
2023/09/26 14:34:53;;;;;;;78.00;6.63;;;;;;;25.73;37.49;100873.69;41360287;28;20065;-70
2023/09/26 14:54:53;;;;;;;26.17;5.20;;;;;;;25.91;39.27;100872.19;41422679;28;20064;-70
2023/09/26 15:14:54;;;;;;;18.05;5.57;;;;;;;25.05;39.62;100739.16;41447507;28;20045;-78
2023/09/26 15:34:56;;;;;;;12.75;5.05;;;;;;;24.65;39.68;100728.56;41458475;28;20096;-75
2023/09/26 15:54:57;;;;;;;13.32;5.70;;;;;;;24.78;40.50;100775.03;41456772;28;20053;-73
2023/09/26 16:14:58;;;;;;;13.88;5.20;;;;;;;24.22;40.61;100731.28;41480465;28;20049;-74
2023/09/26 16:34:59;;;;;;;13.27;5.85;;;;;;;24.73;43.20;100830.22;41497624;28;20495;-73
2023/09/26 16:54:59;;;;;;;14.02;5.90;;;;;;;25.17;44.24;100882.13;41430511;28;20125;-73
2023/09/26 17:14:59;;;;;;;10.73;5.35;;;;;;;24.84;45.36;100873.47;41422132;28;20096;-71
2023/09/26 17:35:00;;;;;;;22.92;7.20;;;;;;;25.09;47.12;100882.81;41332814;28;20073;-70
2023/09/26 17:55:01;;;;;;;16.48;6.63;;;;;;;25.17;47.11;100913.94;41350089;28;20093;-68
2023/09/26 18:15:02;;;;;;;33.22;8.48;;;;;;;25.23;47.74;100924.00;41362169;28;20041;-67
2023/09/26 18:35:07;;;;;;;14.52;6.55;;;;;;;24.92;47.17;100930.13;41364951;28;20465;-68
2023/09/26 18:55:09;;;;;;;15.82;6.15;;;;;;;24.85;45.98;100954.63;41335088;28;20057;-67
2023/09/26 19:15:10;;;;;;;20.17;6.70;;;;;;;25.08;46.20;100974.72;41364134;28;20050;-69
2023/09/26 19:35:12;;;;;;;11.80;6.90;;;;;;;24.95;46.70;100974.09;41399682;28;20471;-70
2023/09/26 19:55:13;;;;;;;12.82;7.38;;;;;;;24.97;48.37;100964.19;41396213;28;20172;-72
2023/09/26 20:15:15;;;;;;;17.00;8.63;;;;;;;23.70;48.63;100768.19;41401810;28;20042;-70
2023/09/26 20:35:16;;;;;;;12.95;8.98;;;;;;;24.99;48.74;100990.56;41382150;28;20503;-70
2023/09/26 20:55:19;;;;;;;13.95;9.02;;;;;;;24.94;48.72;100990.94;41407273;28;20042;-73
2023/09/26 21:15:22;;;;;;;14.00;9.32;;;;;;;24.79;49.69;100971.88;41411018;28;20108;-70
2023/09/26 21:35:23;;;;;;;11.67;8.40;;;;;;;24.86;49.21;100998.69;41394637;28;20892;-69
2023/09/26 21:55:23;;;;;;;11.75;9.00;;;;;;;24.73;49.58;100985.63;41406543;28;20070;-69
2023/09/26 22:15:24;;;;;;;12.20;9.95;;;;;;;24.86;50.04;101011.94;41401372;28;20041;-71
2023/09/26 22:35:24;;;;;;;13.43;8.88;;;;;;;24.75;49.75;101008.34;41383862;28;20038;-69
2023/09/26 22:55:25;;;;;;;11.18;8.85;;;;;;;24.50;49.62;100975.13;41397849;28;20042;-70
2023/09/26 23:15:25;;;;;;;11.93;9.25;;;;;;;24.48;49.68;100984.16;41378793;28;20128;-69
2023/09/26 23:35:26;;;;;;;11.75;9.15;;;;;;;24.46;49.64;100987.75;41384104;28;20407;-69
2023/09/26 23:55:28;;;;;;;13.63;9.65;;;;;;;24.45;49.63;100977.31;41364571;28;20083;-69
